McCutcheon, Mississippi
Current Conditions -  °F | °C
As of 3:53 PM on Monday 22 Dec 2014 (Local Time) from KGLH Reporting Station
Overcast Overcast  
Wind Chill: 62°   Ceiling: 1300
Heat Index: 62°   Visibility: 7mi
Dew Point: 57°   Wind: 12mph
Humidity: 84%   Direction: 160°SSE
Pressure: 29.61"   Gusts: NA
Location:  33.2678°N, 90.8825°W
Report Text: KGLH 222153Z AUTO 16010KT 7SM OVC013 17/14 A2961 RMK AO2 SLP033 T01670139
Loading
Personal Weather Stations






























Interactive Weather Map New forecast layout! Learn more

10-Day Weather Forecast

Advertisements
Track Severe Weather on mobile